Thursday, July 31, 2014, 5:24 AM EDT
Back to Local

KMTP, Montauk Airport

Location: Montauk, NY, United States Lat: 41.067
Local Time: 5:24 AM EDT ( 9:24 GMT) Lon: -71.917
Time Zone: US/Eastern Elev: 6 ft

Show me the last for .
Show Coded

Time T Td Feel RH Dir Speed Gust Alt SLP Vis Weather Sky Remarks
2014-07-31 04:54 67 64 - 90 Variable 3 - 30.09 30.09 0 None
2014-07-31 02:54 67 62 - 84 Variable 3 - 30.09 30.08 0 None
2014-07-31 01:54 68 61 - 78 220° 3 - 30.08 30.08 0 6-hr Min Temp (2am): 68.0°F
6-hr Max Temp (2am): 70.0°F
2014-07-31 00:54 68 61 - 78 - Calm - 30.07 30.07 0 24-hr Min Temp (1am): 60.1°F
24-hr Max Temp (1am): 78.1°F
2014-07-30 23:54 68 60 - 75 Variable 3 - 30.08 30.07 0 None
2014-07-30 21:54 69 60 - 73 210° 3 - 30.07 30.07 0 None
2014-07-30 20:54 69 60 - 73 230° 6 - 30.06 30.06 0 None
2014-07-30 18:54 73 60 77 63 Variable 6 - 30.05 30.04 0 None
2014-07-30 17:54 74 57 77 55 Variable 7 - 30.03 30.03 0 None
2014-07-30 16:54 75 58 78 55 Variable 6 - 30.03 30.03 0 None
2014-07-30 15:54 77 56 78 48 Variable 5 - 30.03 30.02 0 None
2014-07-30 14:54 77 59 79 53 160° 5 - 30.03 30.02 0 None
2014-07-30 13:54 77 57 79 50 Variable 3 - 30.02 30.02 0 6-hr Min Temp (2pm): 68.0°F
6-hr Max Temp (2pm): 78.1°F
2014-07-30 12:54 76 52 77 43 Variable 6 - 30.03 30.03 0 None
2014-07-30 10:54 74 55 77 51 310° 3 - 30.03 30.03 0 None
2014-07-30 09:54 71 57 76 61 - Calm - 30.03 30.03 0 None
2014-07-30 08:54 69 59 - 70 - Calm - 30.03 30.02 0 None
2014-07-30 07:54 69 58 - 67 10° 3 - 30.02 30.02 0 6-hr Min Temp (8am): 60.1°F
6-hr Max Temp (8am): 69.1°F
2014-07-30 06:54 67 59 - 75 - Calm - 30.01 30.01 0 None
2014-07-30 05:54 66 58 - 75 350° 3 - 30.00 29.99 0 None

Support USWX by starting your Amazon purchase here.